Time;durP1;ratioP1;P1;durP2;ratioP2;P2;SDS_P1;SDS_P2;PMS_P1;PMS_P2;Temp;Humidity;BMP_temperature;BMP_pressure;BME280_temperature;BME280_humidity;BME280_pressure;Samples;Min_cycle;Max_cycle;Signal;HPM_P1;HPM_P2
2022/05/16 00:00:07;;;;;;;;;;;;;;;;;;4992986;28;19972;-77
2022/05/16 00:02:32;;;;;;;;;;;;;;;;;;5009361;28;19921;-78
2022/05/16 00:04:58;;;;;;;;;;;;;;;;;;5009018;28;19976;-77
2022/05/16 00:07:24;;;;;;;;;;;;;;;;;;5008873;28;19928;-78
2022/05/16 00:09:51;;;;;;;;;;;;;;;;;;5008839;28;20384;-77
2022/05/16 00:12:17;;;;;;;;;;;;;;;;;;5008284;28;19921;-77
2022/05/16 00:14:44;;;;;;;;;;;;;;;;;;5008072;28;19969;-78
2022/05/16 00:17:11;;;;;;;;;;;;;;;;;;4991145;28;19926;-77
2022/05/16 00:19:40;;;;;;;;;;;;;;;;;;5008410;28;19969;-78
2022/05/16 00:22:10;;;;;;;;;;;;;;;;;;4991908;28;19960;-76
2022/05/16 00:24:38;;;;;;;;;;;;;;;;;;5009892;28;20373;-78
2022/05/16 00:27:06;;;;;;;;;;;;;;;;;;5009560;28;19944;-77
2022/05/16 00:29:33;;;;;;;;;;;;;;;;;;5009772;28;19929;-78
2022/05/16 00:31:59;;;;;;;;;;;;;;;;;;5008189;28;19921;-77
2022/05/16 00:34:25;;;;;;;;;;;;;;;;;;5008751;28;19922;-78
2022/05/16 00:36:51;;;;;;;;;;;;;;;;;;5008204;28;19968;-77
2022/05/16 00:39:17;;;;;;;;;;;;;;;;;;4989238;28;20202;-78
2022/05/16 00:41:43;;;;;;;;;;;;;;;;;;5008206;28;19921;-77
2022/05/16 00:44:09;;;;;;;;;;;;;;;;;;4991253;28;19921;-77
2022/05/16 00:46:35;;;;;;;;;;;;;;;;;;4990584;28;20253;-79
2022/05/16 00:49:00;;;;;;;;;;;;;;;;;;5007736;28;19952;-78
2022/05/16 00:51:26;;;;;;;;;;;;;;;;;;5007926;28;19929;-77
2022/05/16 00:53:52;;;;;;;;;;;;;;;;;;5008653;28;19936;-77
2022/05/16 00:56:18;;;;;;;;;;;;;;;;;;5006564;28;19961;-78
2022/05/16 00:58:44;;;;;;;;;;;;;;;;;;5006937;28;19976;-78
2022/05/16 01:06:40;;;;;;;;;;;;;;;;;;4991588;28;20340;-78
2022/05/16 01:09:06;;;;;;;;;;;;;;;;;;4990833;28;19926;-78
2022/05/16 01:11:32;;;;;;;;;;;;;;;;;;4991036;28;19929;-79
2022/05/16 01:13:58;;;;;;;;;;;;;;;;;;4992996;28;19925;-77
2022/05/16 01:16:23;;;;;;;;;;;;;;;;;;4991471;28;19921;-80
2022/05/16 01:18:49;;;;;;;;;;;;;;;;;;4990523;28;20006;-77
2022/05/16 01:21:15;;;;;;;;;;;;;;;;;;5007757;28;19933;-77
2022/05/16 01:23:41;;;;;;;;;;;;;;;;;;5007083;28;20001;-78
2022/05/16 01:26:08;;;;;;;;;;;;;;;;;;5007430;28;19937;-78
2022/05/16 01:28:34;;;;;;;;;;;;;;;;;;5006623;28;20494;-78
2022/05/16 01:31:00;;;;;;;;;;;;;;;;;;5007268;28;20020;-77
2022/05/16 01:33:26;;;;;;;;;;;;;;;;;;5007598;28;19925;-78
2022/05/16 01:35:52;;;;;;;;;;;;;;;;;;4992144;28;19921;-77
2022/05/16 01:38:26;;;;;;;;;;;;;;;;;;5007074;28;19956;-77
2022/05/16 01:40:52;;;;;;;;;;;;;;;;;;5007721;28;19974;-76
2022/05/16 01:43:18;;;;;;;;;;;;;;;;;;5006790;28;19921;-77
2022/05/16 01:45:44;;;;;;;;;;;;;;;;;;5008166;28;20332;-77
2022/05/16 01:48:10;;;;;;;;;;;;;;;;;;5007167;28;20332;-77
2022/05/16 01:50:36;;;;;;;;;;;;;;;;;;5008034;28;19928;-78
2022/05/16 01:53:02;;;;;;;;;;;;;;;;;;5007427;28;19937;-79
2022/05/16 01:55:28;;;;;;;;;;;;;;;;;;5006768;28;20033;-78
2022/05/16 01:57:54;;;;;;;;;;;;;;;;;;5007274;28;20313;-77
2022/05/16 02:00:20;;;;;;;;;;;;;;;;;;5006376;28;19926;-77
2022/05/16 02:02:46;;;;;;;;;;;;;;;;;;5007375;28;19929;-77
2022/05/16 02:05:12;;;;;;;;;;;;;;;;;;5006607;28;19928;-78
2022/05/16 02:07:38;;;;;;;;;;;;;;;;;;5006753;28;19922;-79
2022/05/16 02:10:04;;;;;;;;;;;;;;;;;;5006123;28;19921;-79
2022/05/16 02:12:29;;;;;;;;;;;;;;;;;;5006311;28;20419;-78
2022/05/16 02:14:55;;;;;;;;;;;;;;;;;;5007824;28;19926;-77
2022/05/16 02:17:21;;;;;;;;;;;;;;;;;;5006207;28;20073;-79
2022/05/16 02:19:47;;;;;;;;;;;;;;;;;;5007646;28;19929;-76
2022/05/16 02:24:58;;;;;;;;;;;;;;;;;;4990138;28;20031;-76
2022/05/16 02:27:24;;;;;;;;;;;;;;;;;;5006318;28;20535;-79
2022/05/16 02:29:50;;;;;;;;;;;;;;;;;;4990841;28;19918;-77
2022/05/16 02:32:16;;;;;;;;;;;;;;;;;;5006323;28;20008;-76
2022/05/16 02:34:44;;;;;;;;;;;;;;;;;;5007239;28;19968;-76
2022/05/16 02:37:10;;;;;;;;;;;;;;;;;;5005689;28;20360;-76
2022/05/16 02:39:36;;;;;;;;;;;;;;;;;;4989475;28;19961;-77
2022/05/16 02:42:02;;;;;;;;;;;;;;;;;;4991446;28;19985;-77
2022/05/16 02:44:28;;;;;;;;;;;;;;;;;;5005892;28;19925;-76
2022/05/16 02:46:54;;;;;;;;;;;;;;;;;;4990700;28;19922;-76
2022/05/16 02:49:21;;;;;;;;;;;;;;;;;;4990507;28;19953;-77
2022/05/16 02:51:47;;;;;;;;;;;;;;;;;;5007027;28;19922;-76
2022/05/16 02:54:13;;;;;;;;;;;;;;;;;;5007073;28;19928;-76
2022/05/16 02:56:39;;;;;;;;;;;;;;;;;;5006414;28;20333;-76
2022/05/16 02:59:05;;;;;;;;;;;;;;;;;;5005358;28;20293;-77
2022/05/16 03:01:34;;;;;;;;;;;;;;;;;;4991271;28;20273;-77
2022/05/16 03:04:00;;;;;;;;;;;;;;;;;;4991260;28;20391;-76
2022/05/16 03:06:26;;;;;;;;;;;;;;;;;;5006355;28;19932;-76
2022/05/16 03:08:52;;;;;;;;;;;;;;;;;;5005788;28;20296;-76
2022/05/16 03:11:18;;;;;;;;;;;;;;;;;;5006256;28;19929;-76
2022/05/16 03:13:44;;;;;;;;;;;;;;;;;;5006688;28;20361;-77
2022/05/16 03:16:10;;;;;;;;;;;;;;;;;;5006730;28;20353;-76
2022/05/16 03:18:36;;;;;;;;;;;;;;;;;;5006830;28;20321;-77
2022/05/16 03:21:02;;;;;;;;;;;;;;;;;;5006438;28;19929;-77
2022/05/16 03:23:27;;;;;;;;;;;;;;;;;;5005795;28;19930;-78
2022/05/16 03:25:53;;;;;;;;;;;;;;;;;;5007173;28;19961;-76
2022/05/16 03:28:19;;;;;;;;;;;;;;;;;;5005781;28;19921;-76
2022/05/16 03:30:45;;;;;;;;;;;;;;;;;;5005772;28;19953;-76
2022/05/16 03:33:11;;;;;;;;;;;;;;;;;;5005363;28;20012;-78
2022/05/16 03:35:37;;;;;;;;;;;;;;;;;;5005577;28;19921;-77
2022/05/16 03:38:03;;;;;;;;;;;;;;;;;;4989288;28;19992;-77
2022/05/16 03:40:47;;;;;;;;;;;;;;;;;;5005944;28;19921;-78
2022/05/16 03:43:13;;;;;;;;;;;;;;;;;;5006151;28;20365;-77
2022/05/16 03:45:39;;;;;;;;;;;;;;;;;;4989646;28;19932;-77
2022/05/16 03:48:06;;;;;;;;;;;;;;;;;;4990078;28;19921;-78
2022/05/16 03:50:32;;;;;;;;;;;;;;;;;;5006154;28;19930;-77
2022/05/16 03:52:59;;;;;;;;;;;;;;;;;;5008624;28;19928;-77
2022/05/16 03:55:25;;;;;;;;;;;;;;;;;;5009456;28;19926;-78
2022/05/16 03:57:52;;;;;;;;;;;;;;;;;;5008919;28;19979;-80
2022/05/16 04:00:18;;;;;;;;;;;;;;;;;;5009013;28;19917;-77
2022/05/16 04:02:44;;;;;;;;;;;;;;;;;;4994325;28;20012;-77
2022/05/16 04:05:10;;;;;;;;;;;;;;;;;;5009257;28;19922;-77
2022/05/16 04:07:36;;;;;;;;;;;;;;;;;;5008799;28;19936;-77
2022/05/16 04:10:01;;;;;;;;;;;;;;;;;;5009228;28;19925;-76
2022/05/16 04:12:27;;;;;;;;;;;;;;;;;;5008359;28;19929;-77
2022/05/16 04:14:53;;;;;;;;;;;;;;;;;;4993477;28;19922;-76
2022/05/16 04:17:19;;;;;;;;;;;;;;;;;;5008174;28;19922;-78
2022/05/16 04:19:45;;;;;;;;;;;;;;;;;;5009581;28;19929;-77
2022/05/16 04:22:11;;;;;;;;;;;;;;;;;;5009438;28;19922;-79
2022/05/16 04:24:37;;;;;;;;;;;;;;;;;;5008599;28;19917;-80
2022/05/16 04:27:03;;;;;;;;;;;;;;;;;;4993717;28;19964;-79
2022/05/16 04:29:29;;;;;;;;;;;;;;;;;;5008617;28;19926;-80
2022/05/16 04:31:55;;;;;;;;;;;;;;;;;;5009511;28;19932;-76
2022/05/16 04:34:21;;;;;;;;;;;;;;;;;;4992174;28;20391;-76
2022/05/16 04:36:47;;;;;;;;;;;;;;;;;;4992108;28;19922;-77
2022/05/16 04:39:13;;;;;;;;;;;;;;;;;;5007976;28;19928;-78
2022/05/16 04:44:24;;;;;;;;;;;;;;;;;;4990950;28;20012;-78
2022/05/16 04:46:50;;;;;;;;;;;;;;;;;;5008431;28;19977;-76
2022/05/16 04:49:16;;;;;;;;;;;;;;;;;;5008241;28;19932;-76
2022/05/16 04:51:42;;;;;;;;;;;;;;;;;;4992650;28;19941;-79
2022/05/16 04:54:08;;;;;;;;;;;;;;;;;;5007809;28;19979;-75
2022/05/16 04:56:34;;;;;;;;;;;;;;;;;;5005718;28;19929;-76
2022/05/16 04:59:00;;;;;;;;;;;;;;;;;;5006649;28;19922;-76
2022/05/16 05:01:26;;;;;;;;;;;;;;;;;;5008046;28;20064;-77
2022/05/16 05:03:52;;;;;;;;;;;;;;;;;;4990755;28;20400;-76
2022/05/16 05:06:18;;;;;;;;;;;;;;;;;;5007443;28;20250;-76
2022/05/16 05:08:44;;;;;;;;;;;;;;;;;;5008062;28;19922;-75
2022/05/16 05:16:39;;;;;;;;;;;;;;;;;;4991488;28;19996;-75
2022/05/16 05:19:05;;;;;;;;;;;;;;;;;;5007189;28;19926;-76
2022/05/16 05:21:31;;;;;;;;;;;;;;;;;;4991348;28;19928;-76
2022/05/16 05:23:57;;;;;;;;;;;;;;;;;;5007774;28;19925;-76
2022/05/16 05:26:23;;;;;;;;;;;;;;;;;;5006798;28;19922;-76
2022/05/16 05:28:49;;;;;;;;;;;;;;;;;;5007506;28;20008;-76
2022/05/16 05:31:15;;;;;;;;;;;;;;;;;;5006843;28;20381;-75
2022/05/16 05:33:41;;;;;;;;;;;;;;;;;;4991675;28;19928;-75
2022/05/16 05:36:08;;;;;;;;;;;;;;;;;;5007983;28;19976;-75
2022/05/16 05:38:36;;;;;;;;;;;;;;;;;;5007555;28;20102;-76
2022/05/16 05:41:02;;;;;;;;;;;;;;;;;;4991287;28;19921;-76
2022/05/16 05:43:28;;;;;;;;;;;;;;;;;;5007933;28;19954;-76
2022/05/16 05:45:54;;;;;;;;;;;;;;;;;;5006402;28;19922;-79
2022/05/16 05:48:20;;;;;;;;;;;;;;;;;;5006783;28;20283;-78
2022/05/16 05:50:46;;;;;;;;;;;;;;;;;;5006546;28;19925;-78
2022/05/16 05:53:12;;;;;;;;;;;;;;;;;;5006761;28;20414;-79
2022/05/16 05:55:39;;;;;;;;;;;;;;;;;;5008026;28;20262;-82
2022/05/16 05:58:05;;;;;;;;;;;;;;;;;;4991622;28;19921;-79
2022/05/16 06:00:31;;;;;;;;;;;;;;;;;;5007550;28;19928;-79
2022/05/16 06:02:57;;;;;;;;;;;;;;;;;;5008589;28;19972;-78
2022/05/16 06:05:23;;;;;;;;;;;;;;;;;;5009057;28;19922;-79
2022/05/16 06:07:49;;;;;;;;;;;;;;;;;;5008296;28;19922;-79
2022/05/16 06:10:15;;;;;;;;;;;;;;;;;;5008245;28;19976;-79
2022/05/16 06:12:41;;;;;;;;;;;;;;;;;;5008000;28;19922;-80
2022/05/16 06:15:07;;;;;;;;;;;;;;;;;;4991280;28;19922;-80
2022/05/16 06:17:35;;;;;;;;;;;;;;;;;;5008172;28;20303;-79
2022/05/16 06:20:01;;;;;;;;;;;;;;;;;;4992445;28;19922;-78
2022/05/16 06:22:34;;;;;;;;;;;;;;;;;;4991916;28;19921;-79
2022/05/16 06:27:44;;;;;;;;;;;;;;;;;;4992830;28;19936;-79
2022/05/16 06:30:11;;;;;;;;;;;;;;;;;;4992672;28;19922;-79
2022/05/16 06:32:37;;;;;;;;;;;;;;;;;;5007845;28;20361;-79
2022/05/16 06:35:03;;;;;;;;;;;;;;;;;;5009045;28;19921;-78
2022/05/16 06:37:29;;;;;;;;;;;;;;;;;;4991160;28;19922;-80
2022/05/16 06:39:55;;;;;;;;;;;;;;;;;;4992214;28;19945;-78
2022/05/16 06:42:20;;;;;;;;;;;;;;;;;;4991989;28;19921;-78
2022/05/16 06:44:46;;;;;;;;;;;;;;;;;;4991741;28;19925;-79
2022/05/16 06:47:12;;;;;;;;;;;;;;;;;;5008561;28;19928;-79
2022/05/16 06:49:38;;;;;;;;;;;;;;;;;;4990598;28;19922;-78
2022/05/16 06:52:05;;;;;;;;;;;;;;;;;;5007643;28;19944;-79
2022/05/16 06:54:31;;;;;;;;;;;;;;;;;;5007541;28;19926;-79
2022/05/16 06:56:57;;;;;;;;;;;;;;;;;;4992383;28;19921;-78
2022/05/16 06:59:22;;;;;;;;;;;;;;;;;;5007787;28;19984;-78
2022/05/16 07:01:48;;;;;;;;;;;;;;;;;;5007699;28;19921;-77
2022/05/16 07:04:14;;;;;;;;;;;;;;;;;;4991177;28;19925;-78
2022/05/16 07:06:40;;;;;;;;;;;;;;;;;;5008137;28;19957;-79
2022/05/16 07:09:06;;;;;;;;;;;;;;;;;;5007668;28;19941;-78
2022/05/16 07:11:32;;;;;;;;;;;;;;;;;;5007865;28;19921;-78
2022/05/16 07:13:58;;;;;;;;;;;;;;;;;;5006578;28;19984;-84
2022/05/16 07:16:24;;;;;;;;;;;;;;;;;;4991103;28;19929;-79
2022/05/16 07:18:50;;;;;;;;;;;;;;;;;;5007711;28;20035;-78
2022/05/16 07:21:16;;;;;;;;;;;;;;;;;;4991769;28;19926;-79
2022/05/16 07:23:42;;;;;;;;;;;;;;;;;;5007133;28;19973;-80
2022/05/16 07:28:53;;;;;;;;;;;;;;;;;;4994962;28;20317;-79
2022/05/16 07:31:19;;;;;;;;;;;;;;;;;;5011768;28;19953;-79
2022/05/16 07:33:45;;;;;;;;;;;;;;;;;;5010875;28;20357;-79
2022/05/16 07:36:11;;;;;;;;;;;;;;;;;;4995426;28;19968;-79
2022/05/16 07:38:37;;;;;;;;;;;;;;;;;;5011310;28;19965;-79
2022/05/16 07:41:03;;;;;;;;;;;;;;;;;;4995110;28;20262;-79
2022/05/16 07:43:29;;;;;;;;;;;;;;;;;;5011152;28;19971;-80
2022/05/16 07:45:55;;;;;;;;;;;;;;;;;;4994222;28;20349;-80
2022/05/16 07:48:21;;;;;;;;;;;;;;;;;;4995279;28;20009;-80
2022/05/16 07:50:48;;;;;;;;;;;;;;;;;;5010835;28;20353;-80
2022/05/16 07:53:14;;;;;;;;;;;;;;;;;;5011363;28;19922;-79
2022/05/16 07:55:40;;;;;;;;;;;;;;;;;;5009843;28;19979;-79
2022/05/16 07:58:06;;;;;;;;;;;;;;;;;;5011069;28;19926;-80
2022/05/16 08:00:31;;;;;;;;;;;;;;;;;;4994438;28;19921;-79
2022/05/16 08:02:57;;;;;;;;;;;;;;;;;;5010441;28;19947;-79
2022/05/16 08:05:23;;;;;;;;;;;;;;;;;;4995273;28;19980;-79
2022/05/16 08:10:34;;;;;;;;;;;;;;;;;;4993363;28;19922;-79
2022/05/16 08:13:00;;;;;;;;;;;;;;;;;;4993719;28;20262;-79
2022/05/16 08:15:26;;;;;;;;;;;;;;;;;;5010243;28;19926;-80
2022/05/16 08:17:52;;;;;;;;;;;;;;;;;;5009825;28;20385;-80
2022/05/16 08:20:18;;;;;;;;;;;;;;;;;;5010630;28;20005;-79
2022/05/16 08:22:44;;;;;;;;;;;;;;;;;;5009803;28;19926;-80
2022/05/16 08:25:10;;;;;;;;;;;;;;;;;;5010380;28;19921;-79
2022/05/16 08:27:36;;;;;;;;;;;;;;;;;;5010082;28;20405;-79
2022/05/16 08:30:02;;;;;;;;;;;;;;;;;;5010367;28;19948;-80
2022/05/16 08:32:28;;;;;;;;;;;;;;;;;;5009992;28;20368;-80
2022/05/16 08:34:54;;;;;;;;;;;;;;;;;;5009674;28;20361;-79
2022/05/16 08:40:05;;;;;;;;;;;;;;;;;;4994395;28;19975;-81
2022/05/16 08:42:31;;;;;;;;;;;;;;;;;;5010007;28;19925;-79
2022/05/16 08:44:57;;;;;;;;;;;;;;;;;;5008952;28;20004;-79
2022/05/16 08:47:23;;;;;;;;;;;;;;;;;;5009367;28;20364;-80
2022/05/16 08:49:49;;;;;;;;;;;;;;;;;;4993543;28;19947;-80
2022/05/16 08:52:16;;;;;;;;;;;;;;;;;;4993206;28;19960;-80
2022/05/16 08:54:44;;;;;;;;;;;;;;;;;;5009698;28;19921;-80
2022/05/16 08:57:10;;;;;;;;;;;;;;;;;;5009754;28;19943;-80
2022/05/16 08:59:36;;;;;;;;;;;;;;;;;;5009639;28;19926;-80
2022/05/16 09:02:02;;;;;;;;;;;;;;;;;;5010022;28;19949;-80
2022/05/16 09:04:30;;;;;;;;;;;;;;;;;;4992847;28;20357;-80
2022/05/16 09:06:56;;;;;;;;;;;;;;;;;;5009075;28;19925;-80
2022/05/16 09:09:22;;;;;;;;;;;;;;;;;;5009036;28;19928;-80
2022/05/16 09:11:48;;;;;;;;;;;;;;;;;;5010061;28;19995;-80
2022/05/16 09:14:13;;;;;;;;;;;;;;;;;;4993197;28;19988;-80
2022/05/16 09:16:39;;;;;;;;;;;;;;;;;;5009557;28;19925;-80
2022/05/16 09:19:05;;;;;;;;;;;;;;;;;;4992628;28;19926;-80
2022/05/16 09:21:31;;;;;;;;;;;;;;;;;;5009593;28;19922;-81
2022/05/16 09:23:58;;;;;;;;;;;;;;;;;;5008620;28;20021;-80
2022/05/16 09:26:24;;;;;;;;;;;;;;;;;;4992768;28;20345;-81
2022/05/16 09:28:50;;;;;;;;;;;;;;;;;;5008802;28;19961;-81
2022/05/16 09:31:16;;;;;;;;;;;;;;;;;;5008814;28;19926;-81
2022/05/16 09:33:42;;;;;;;;;;;;;;;;;;5008838;28;19928;-81
2022/05/16 09:36:08;;;;;;;;;;;;;;;;;;5009547;28;20397;-82
2022/05/16 09:38:34;;;;;;;;;;;;;;;;;;4992113;28;20293;-82
2022/05/16 09:41:03;;;;;;;;;;;;;;;;;;4992547;28;20008;-81
2022/05/16 09:43:29;;;;;;;;;;;;;;;;;;5008767;28;19973;-82
2022/05/16 09:45:55;;;;;;;;;;;;;;;;;;5007846;28;19985;-81
2022/05/16 09:48:21;;;;;;;;;;;;;;;;;;5009351;28;19973;-81
2022/05/16 09:50:47;;;;;;;;;;;;;;;;;;5008021;28;19965;-81
2022/05/16 09:53:14;;;;;;;;;;;;;;;;;;5008785;28;19945;-81
2022/05/16 09:55:40;;;;;;;;;;;;;;;;;;4992418;28;19933;-81
2022/05/16 09:58:07;;;;;;;;;;;;;;;;;;4991680;28;19925;-81
2022/05/16 10:00:33;;;;;;;;;;;;;;;;;;5008403;28;19922;-81
2022/05/16 10:02:59;;;;;;;;;;;;;;;;;;5008124;28;19969;-81
2022/05/16 10:05:25;;;;;;;;;;;;;;;;;;5008551;28;19947;-81
2022/05/16 10:07:51;;;;;;;;;;;;;;;;;;5007841;28;19922;-80
2022/05/16 10:10:17;;;;;;;;;;;;;;;;;;5008291;28;19928;-80
2022/05/16 10:12:43;;;;;;;;;;;;;;;;;;5008528;28;19921;-81
2022/05/16 10:15:09;;;;;;;;;;;;;;;;;;4992338;28;20024;-80
2022/05/16 10:17:35;;;;;;;;;;;;;;;;;;5008504;28;20503;-80
2022/05/16 10:20:01;;;;;;;;;;;;;;;;;;4991819;28;20427;-80
2022/05/16 10:22:27;;;;;;;;;;;;;;;;;;5008491;28;20250;-80
2022/05/16 10:24:54;;;;;;;;;;;;;;;;;;4990965;28;20376;-80
2022/05/16 10:27:20;;;;;;;;;;;;;;;;;;5008228;28;19921;-80
2022/05/16 10:29:47;;;;;;;;;;;;;;;;;;4991434;28;20288;-80
2022/05/16 10:34:58;;;;;;;;;;;;;;;;;;4991654;28;19972;-79
2022/05/16 10:37:24;;;;;;;;;;;;;;;;;;4992742;28;20012;-80
2022/05/16 10:39:50;;;;;;;;;;;;;;;;;;5007706;28;19925;-80
2022/05/16 10:42:16;;;;;;;;;;;;;;;;;;5007903;28;20257;-80
2022/05/16 10:44:42;;;;;;;;;;;;;;;;;;4992055;28;20350;-81
2022/05/16 10:47:08;;;;;;;;;;;;;;;;;;5007356;28;19926;-80
2022/05/16 10:49:34;;;;;;;;;;;;;;;;;;4991666;28;20273;-80
2022/05/16 10:52:00;;;;;;;;;;;;;;;;;;5008093;28;19922;-80
2022/05/16 10:54:26;;;;;;;;;;;;;;;;;;5008035;28;20353;-81
2022/05/16 10:56:52;;;;;;;;;;;;;;;;;;5007477;28;19928;-80
2022/05/16 10:59:17;;;;;;;;;;;;;;;;;;4991820;28;20376;-81
2022/05/16 11:01:43;;;;;;;;;;;;;;;;;;4995405;28;20269;-81
2022/05/16 11:04:10;;;;;;;;;;;;;;;;;;4995821;28;19921;-86
2022/05/16 11:06:37;;;;;;;;;;;;;;;;;;5013237;28;19926;-85
2022/05/16 11:09:03;;;;;;;;;;;;;;;;;;5010139;28;19928;-83
2022/05/16 11:11:29;;;;;;;;;;;;;;;;;;4993815;28;19960;-82
2022/05/16 11:13:55;;;;;;;;;;;;;;;;;;4993588;28;20009;-79
2022/05/16 11:16:21;;;;;;;;;;;;;;;;;;4992860;28;19929;-80
2022/05/16 11:18:47;;;;;;;;;;;;;;;;;;5009455;28;19925;-81
2022/05/16 11:21:13;;;;;;;;;;;;;;;;;;5009049;28;20000;-78
2022/05/16 11:23:39;;;;;;;;;;;;;;;;;;5008833;28;19949;-80
2022/05/16 11:26:05;;;;;;;;;;;;;;;;;;5008787;28;19921;-78
2022/05/16 11:28:32;;;;;;;;;;;;;;;;;;4991956;28;20349;-78
2022/05/16 11:30:58;;;;;;;;;;;;;;;;;;4992285;28;19922;-78
2022/05/16 11:33:24;;;;;;;;;;;;;;;;;;5009070;28;19948;-79
2022/05/16 11:35:51;;;;;;;;;;;;;;;;;;5008942;28;19977;-80
2022/05/16 11:38:16;;;;;;;;;;;;;;;;;;5009258;28;19969;-80
2022/05/16 11:40:42;;;;;;;;;;;;;;;;;;4992230;28;20290;-81
2022/05/16 11:43:08;;;;;;;;;;;;;;;;;;4991772;28;19921;-79
2022/05/16 11:45:34;;;;;;;;;;;;;;;;;;4991513;28;20012;-82
2022/05/16 11:48:00;;;;;;;;;;;;;;;;;;5012106;28;19936;-83
2022/05/16 11:50:26;;;;;;;;;;;;;;;;;;4993792;28;19932;-79
2022/05/16 11:52:52;;;;;;;;;;;;;;;;;;5010204;28;19921;-77
2022/05/16 12:00:47;;;;;;;;;;;;;;;;;;4993884;28;19921;-79
2022/05/16 12:03:16;;;;;;;;;;;;;;;;;;5009524;28;19996;-76
2022/05/16 12:05:43;;;;;;;;;;;;;;;;;;4995212;28;19921;-78
2022/05/16 12:08:08;;;;;;;;;;;;;;;;;;4993790;28;20424;-78
2022/05/16 12:10:34;;;;;;;;;;;;;;;;;;4994197;28;19968;-79
2022/05/16 12:13:00;;;;;;;;;;;;;;;;;;5009217;28;20284;-79
2022/05/16 12:15:27;;;;;;;;;;;;;;;;;;5009804;28;19925;-79
2022/05/16 12:17:53;;;;;;;;;;;;;;;;;;5010435;28;19925;-81
2022/05/16 12:20:19;;;;;;;;;;;;;;;;;;5009513;28;20379;-74
2022/05/16 12:22:45;;;;;;;;;;;;;;;;;;4994610;28;19921;-75
2022/05/16 12:25:11;;;;;;;;;;;;;;;;;;5009245;28;19922;-75
2022/05/16 12:27:38;;;;;;;;;;;;;;;;;;4993874;28;20328;-75
2022/05/16 12:30:06;;;;;;;;;;;;;;;;;;4993215;28;19925;-75
2022/05/16 12:32:33;;;;;;;;;;;;;;;;;;5010047;28;20361;-76
2022/05/16 12:34:59;;;;;;;;;;;;;;;;;;4993994;28;19922;-76
2022/05/16 12:37:25;;;;;;;;;;;;;;;;;;4993190;28;19928;-76
2022/05/16 12:39:51;;;;;;;;;;;;;;;;;;4992596;28;19922;-76
2022/05/16 12:42:17;;;;;;;;;;;;;;;;;;4993384;28;19921;-76
2022/05/16 12:44:44;;;;;;;;;;;;;;;;;;5008682;28;20000;-79
2022/05/16 12:47:10;;;;;;;;;;;;;;;;;;5010126;28;19929;-78
2022/05/16 12:49:37;;;;;;;;;;;;;;;;;;4994046;28;19925;-76
2022/05/16 12:52:03;;;;;;;;;;;;;;;;;;5010137;28;20258;-77
2022/05/16 12:54:29;;;;;;;;;;;;;;;;;;5010152;28;19928;-78
2022/05/16 12:56:55;;;;;;;;;;;;;;;;;;4994423;28;20412;-78
2022/05/16 12:59:21;;;;;;;;;;;;;;;;;;4992888;28;20008;-77
2022/05/16 13:01:47;;;;;;;;;;;;;;;;;;4992849;28;20106;-77
2022/05/16 13:04:13;;;;;;;;;;;;;;;;;;4992410;28;19921;-76
2022/05/16 13:06:39;;;;;;;;;;;;;;;;;;4993789;28;19922;-76
2022/05/16 13:09:05;;;;;;;;;;;;;;;;;;4992776;28;20025;-76
2022/05/16 13:11:31;;;;;;;;;;;;;;;;;;4993668;28;19944;-76
2022/05/16 13:13:57;;;;;;;;;;;;;;;;;;5009835;28;19932;-76
2022/05/16 13:16:23;;;;;;;;;;;;;;;;;;4993577;28;20328;-76
2022/05/16 13:18:52;;;;;;;;;;;;;;;;;;4994479;28;19967;-77
2022/05/16 13:21:18;;;;;;;;;;;;;;;;;;4993963;28;19922;-76
2022/05/16 13:23:44;;;;;;;;;;;;;;;;;;4993682;28;19928;-76
2022/05/16 13:31:39;;;;;;;;;;;;;;;;;;4994313;28;19937;-77
2022/05/16 13:34:05;;;;;;;;;;;;;;;;;;4993465;28;19922;-77
2022/05/16 13:36:31;;;;;;;;;;;;;;;;;;4993746;28;19922;-77
2022/05/16 13:38:57;;;;;;;;;;;;;;;;;;5009058;28;19922;-77
2022/05/16 13:41:23;;;;;;;;;;;;;;;;;;5008993;28;19976;-76
2022/05/16 13:43:50;;;;;;;;;;;;;;;;;;4993880;28;20312;-77
2022/05/16 13:46:15;;;;;;;;;;;;;;;;;;4993388;28;20361;-76
2022/05/16 13:48:42;;;;;;;;;;;;;;;;;;4993811;28;19929;-76
2022/05/16 13:51:08;;;;;;;;;;;;;;;;;;4993750;28;20355;-76
2022/05/16 13:53:34;;;;;;;;;;;;;;;;;;4993695;28;19972;-76
2022/05/16 13:56:00;;;;;;;;;;;;;;;;;;4994219;28;19929;-76
2022/05/16 13:58:26;;;;;;;;;;;;;;;;;;5009146;28;19926;-77
2022/05/16 14:00:52;;;;;;;;;;;;;;;;;;4993089;28;19922;-76
2022/05/16 14:03:18;;;;;;;;;;;;;;;;;;4992744;28;19971;-77
2022/05/16 14:05:44;;;;;;;;;;;;;;;;;;4993851;28;19922;-80
2022/05/16 14:08:10;;;;;;;;;;;;;;;;;;5008412;28;19921;-76
2022/05/16 14:10:36;;;;;;;;;;;;;;;;;;4992827;28;19922;-77
2022/05/16 14:13:02;;;;;;;;;;;;;;;;;;4993217;28;20020;-77
2022/05/16 14:15:29;;;;;;;;;;;;;;;;;;4993385;28;19944;-77
2022/05/16 14:17:55;;;;;;;;;;;;;;;;;;4992797;28;19971;-77
2022/05/16 14:20:21;;;;;;;;;;;;;;;;;;5008469;28;20020;-77
2022/05/16 14:22:47;;;;;;;;;;;;;;;;;;5009053;28;19921;-76
2022/05/16 14:25:13;;;;;;;;;;;;;;;;;;5007764;28;19932;-77
2022/05/16 14:27:39;;;;;;;;;;;;;;;;;;4992145;28;19925;-76
2022/05/16 14:30:05;;;;;;;;;;;;;;;;;;4993453;28;19925;-77
2022/05/16 14:32:31;;;;;;;;;;;;;;;;;;5008781;28;19928;-77
2022/05/16 14:34:57;;;;;;;;;;;;;;;;;;4991660;28;19922;-76
2022/05/16 14:37:23;;;;;;;;;;;;;;;;;;5007953;28;19928;-76
2022/05/16 14:39:50;;;;;;;;;;;;;;;;;;4993546;28;19926;-76
2022/05/16 14:42:18;;;;;;;;;;;;;;;;;;4992865;28;19933;-76
2022/05/16 14:44:44;;;;;;;;;;;;;;;;;;4993247;28;20357;-77
2022/05/16 14:47:11;;;;;;;;;;;;;;;;;;5008329;28;19929;-76
2022/05/16 14:49:37;;;;;;;;;;;;;;;;;;4993463;28;19925;-76
2022/05/16 14:52:02;;;;;;;;;;;;;;;;;;5008804;28;19945;-76
2022/05/16 14:54:28;;;;;;;;;;;;;;;;;;4992744;28;19925;-76
2022/05/16 14:56:54;;;;;;;;;;;;;;;;;;4993287;28;19928;-76
2022/05/16 14:59:20;;;;;;;;;;;;;;;;;;4991584;28;19921;-76
2022/05/16 15:04:31;;;;;;;;;;;;;;;;;;4991812;28;19969;-76
2022/05/16 15:06:58;;;;;;;;;;;;;;;;;;4993340;28;20000;-76
2022/05/16 15:09:24;;;;;;;;;;;;;;;;;;4992482;28;19921;-76
2022/05/16 15:11:50;;;;;;;;;;;;;;;;;;4992815;28;19922;-76
2022/05/16 15:14:16;;;;;;;;;;;;;;;;;;4991844;28;19933;-76
2022/05/16 15:16:42;;;;;;;;;;;;;;;;;;4990205;28;19922;-76
2022/05/16 15:19:09;;;;;;;;;;;;;;;;;;5007358;28;20292;-76
2022/05/16 15:21:35;;;;;;;;;;;;;;;;;;4991760;28;19922;-76
2022/05/16 15:24:03;;;;;;;;;;;;;;;;;;4992372;28;19922;-76
2022/05/16 15:26:29;;;;;;;;;;;;;;;;;;4992718;28;19921;-76
2022/05/16 15:28:55;;;;;;;;;;;;;;;;;;4991903;28;20262;-76
2022/05/16 15:31:21;;;;;;;;;;;;;;;;;;5007775;28;19921;-76
2022/05/16 15:33:47;;;;;;;;;;;;;;;;;;4989440;28;19926;-76
2022/05/16 15:36:13;;;;;;;;;;;;;;;;;;5007062;28;20005;-76
2022/05/16 15:38:39;;;;;;;;;;;;;;;;;;4991332;28;20012;-76
2022/05/16 15:41:05;;;;;;;;;;;;;;;;;;4992705;28;20269;-76
2022/05/16 15:43:31;;;;;;;;;;;;;;;;;;4992171;28;19921;-76
2022/05/16 15:45:57;;;;;;;;;;;;;;;;;;5008391;28;19921;-76
2022/05/16 15:48:23;;;;;;;;;;;;;;;;;;4995231;28;20520;-76
2022/05/16 15:50:49;;;;;;;;;;;;;;;;;;4996179;28;19941;-75
2022/05/16 15:53:15;;;;;;;;;;;;;;;;;;4995729;28;19921;-75
2022/05/16 15:55:41;;;;;;;;;;;;;;;;;;4995924;28;19922;-76
2022/05/16 15:58:07;;;;;;;;;;;;;;;;;;4995730;28;19928;-75
2022/05/16 16:00:33;;;;;;;;;;;;;;;;;;4995548;28;19921;-75
2022/05/16 16:02:59;;;;;;;;;;;;;;;;;;4996216;28;19969;-75
2022/05/16 16:10:54;;;;;;;;;;;;;;;;;;4996313;28;20408;-75
2022/05/16 16:13:20;;;;;;;;;;;;;;;;;;4995607;28;19922;-75
2022/05/16 16:15:46;;;;;;;;;;;;;;;;;;4995475;28;19925;-75
2022/05/16 16:18:12;;;;;;;;;;;;;;;;;;4995556;28;19925;-75
2022/05/16 16:20:38;;;;;;;;;;;;;;;;;;4996073;28;19928;-75
2022/05/16 16:23:04;;;;;;;;;;;;;;;;;;5011059;28;20020;-75
2022/05/16 16:25:34;;;;;;;;;;;;;;;;;;4994756;28;20045;-75
2022/05/16 16:28:00;;;;;;;;;;;;;;;;;;4995788;28;19922;-75
2022/05/16 16:30:26;;;;;;;;;;;;;;;;;;4995156;28;19945;-75
2022/05/16 16:32:52;;;;;;;;;;;;;;;;;;5010971;28;20152;-75
2022/05/16 16:35:18;;;;;;;;;;;;;;;;;;4995345;28;19921;-75
2022/05/16 16:37:44;;;;;;;;;;;;;;;;;;4995514;28;19929;-75
2022/05/16 16:40:10;;;;;;;;;;;;;;;;;;4994484;28;19928;-75
2022/05/16 16:42:38;;;;;;;;;;;;;;;;;;4994981;28;19927;-75
2022/05/16 16:45:05;;;;;;;;;;;;;;;;;;4995188;28;19922;-75
2022/05/16 16:47:31;;;;;;;;;;;;;;;;;;4994694;28;20046;-75
2022/05/16 16:49:57;;;;;;;;;;;;;;;;;;4995051;28;19984;-75
2022/05/16 16:57:56;;;;;;;;;;;;;;;;;;4993876;28;19922;-76
2022/05/16 17:00:22;;;;;;;;;;;;;;;;;;4993739;28;19922;-75
2022/05/16 17:02:48;;;;;;;;;;;;;;;;;;4994135;28;19929;-76
2022/05/16 17:05:17;;;;;;;;;;;;;;;;;;5009422;28;19926;-76
2022/05/16 17:07:43;;;;;;;;;;;;;;;;;;4994344;28;19928;-76
2022/05/16 17:10:09;;;;;;;;;;;;;;;;;;5009270;28;19921;-73
2022/05/16 17:12:35;;;;;;;;;;;;;;;;;;4994162;28;19928;-76
2022/05/16 17:15:01;;;;;;;;;;;;;;;;;;5009747;28;19921;-76
2022/05/16 17:17:27;;;;;;;;;;;;;;;;;;4993217;28;19928;-74
2022/05/16 17:19:53;;;;;;;;;;;;;;;;;;4994291;28;19972;-75
2022/05/16 17:22:19;;;;;;;;;;;;;;;;;;4992016;28;19976;-74
2022/05/16 17:24:46;;;;;;;;;;;;;;;;;;4994054;28;19921;-73
2022/05/16 17:27:12;;;;;;;;;;;;;;;;;;4993785;28;19922;-72
2022/05/16 17:29:38;;;;;;;;;;;;;;;;;;4993584;28;19948;-72
2022/05/16 17:32:04;;;;;;;;;;;;;;;;;;4993696;28;19921;-73